Cedarville, New Jersey
Current Conditions -  °F | °C
As of 11:54 AM on Thursday 30 Oct 2014 (Local Time) from KMIV Reporting Station
Overcast Overcast  
Wind Chill: 54°   Ceiling: 7000
Heat Index: 54°   Visibility: 10mi
Dew Point: 43°   Wind: 6mph
Humidity: 66%   Direction: 350°N
Pressure: 30.03"   Gusts: NA
Location:  39.33°N, 75.2°W
Report Text: KMIV 301554Z AUTO 35005KT 10SM OVC070 12/06 A3003 RMK AO2 SLP166 T01220061
Loading
Personal Weather Stations






























Interactive Weather Map
Tropical Storm Tracking
New forecast layout! Learn more

10-Day Weather Forecast

Advertisements
Track Severe Weather on mobile